Time;durP1;ratioP1;P1;durP2;ratioP2;P2;SDS_P1;SDS_P2;PMS_P1;PMS_P2;Temp;Humidity;BMP_temperature;BMP_pressure;BME280_temperature;BME280_humidity;BME280_pressure;Samples;Min_cycle;Max_cycle;Signal;HPM_P1;HPM_P2
2021/10/20 00:01:14;;;;;;;7.20;5.20;;;;;;;13.75;75.75;100097.91;8492605;33;20250;-74
2021/10/20 00:06:17;;;;;;;8.05;5.55;;;;;;;13.89;75.22;100090.13;8489354;33;20427;-75
2021/10/20 00:11:22;;;;;;;6.47;5.25;;;;;;;13.92;74.83;100079.00;8485656;33;20404;-75
2021/10/20 00:16:26;;;;;;;6.22;4.60;;;;;;;13.86;73.68;100076.94;8460020;33;20240;-75
2021/10/20 00:21:30;;;;;;;6.95;4.60;;;;;;;13.90;73.30;100075.63;8485289;33;20155;-75
2021/10/20 00:26:34;;;;;;;7.07;5.10;;;;;;;14.05;73.20;100069.69;8485712;33;20627;-75
2021/10/20 00:31:37;;;;;;;7.88;5.07;;;;;;;13.98;72.47;100061.34;8485428;33;20581;-75
2021/10/20 00:36:40;;;;;;;6.60;4.75;;;;;;;13.83;71.99;100052.94;8486582;33;20992;-75
2021/10/20 00:41:45;;;;;;;8.40;4.50;;;;;;;14.01;72.14;100049.38;8500554;33;20436;-75
2021/10/20 00:46:49;;;;;;;6.88;4.50;;;;;;;13.94;70.33;100041.91;8504581;33;20507;-75
2021/10/20 00:51:52;;;;;;;6.93;4.60;;;;;;;14.10;70.49;100033.13;8504477;33;20576;-74
2021/10/20 00:56:57;;;;;;;6.47;4.03;;;;;;;14.09;69.39;100020.59;8502610;33;20487;-76
2021/10/20 01:02:00;;;;;;;6.97;4.35;;;;;;;14.22;69.05;100011.25;8502129;33;20259;-75
2021/10/20 01:07:04;;;;;;;7.82;4.10;;;;;;;14.13;68.94;100007.66;8489716;33;20555;-76
2021/10/20 01:12:09;;;;;;;7.30;4.10;;;;;;;14.09;68.92;99990.88;8490239;33;20137;-75
2021/10/20 01:17:12;;;;;;;5.82;3.80;;;;;;;14.14;68.52;99991.28;8489313;33;20590;-75
2021/10/20 01:22:17;;;;;;;6.03;4.03;;;;;;;14.00;69.14;99977.50;8489156;33;20573;-77
2021/10/20 01:27:21;;;;;;;8.15;4.90;;;;;;;13.97;68.87;99980.50;8487700;33;20509;-75
2021/10/20 01:32:26;;;;;;;7.60;5.20;;;;;;;13.77;70.31;99967.19;8490021;33;20614;-75
2021/10/20 01:37:31;;;;;;;7.57;5.07;;;;;;;13.62;71.06;99955.22;8496364;33;21457;-75
2021/10/20 01:42:34;;;;;;;7.03;4.63;;;;;;;13.48;71.09;99952.06;8502355;33;20904;-75
2021/10/20 01:47:38;;;;;;;9.70;5.18;;;;;;;13.47;71.11;99944.97;8503099;33;20433;-75
2021/10/20 01:52:43;;;;;;;8.57;4.63;;;;;;;13.55;70.67;99937.94;8509526;33;20186;-75
2021/10/20 01:57:46;;;;;;;7.40;4.72;;;;;;;13.51;70.11;99926.63;8507145;33;20462;-75
2021/10/20 02:02:49;;;;;;;8.25;4.63;;;;;;;13.48;70.43;99922.38;8510860;33;20186;-75
2021/10/20 02:07:54;;;;;;;6.47;4.15;;;;;;;13.49;70.53;99910.59;8509347;33;20307;-75
2021/10/20 02:12:57;;;;;;;6.00;3.95;;;;;;;13.43;70.26;99895.00;8502669;33;20525;-75
2021/10/20 02:18:01;;;;;;;7.63;4.75;;;;;;;13.46;70.13;99893.84;8491099;33;20483;-75
2021/10/20 02:23:05;;;;;;;6.85;4.70;;;;;;;13.41;69.82;99896.16;8502018;33;20430;-75
2021/10/20 02:28:08;;;;;;;6.72;4.15;;;;;;;13.44;69.50;99885.09;8497043;33;20477;-75
2021/10/20 02:33:12;;;;;;;6.93;4.35;;;;;;;13.44;70.07;99864.34;8487384;33;20504;-76
2021/10/20 02:38:16;;;;;;;8.00;4.72;;;;;;;13.40;69.47;99870.19;8495449;33;20341;-75
2021/10/20 02:43:20;;;;;;;6.57;4.07;;;;;;;13.33;69.13;99866.38;8489275;33;20418;-75
2021/10/20 02:48:23;;;;;;;6.05;4.55;;;;;;;13.34;69.19;99866.25;8486743;33;20278;-73
2021/10/20 02:53:27;;;;;;;6.85;4.30;;;;;;;13.39;68.71;99860.44;8484803;33;20180;-75
2021/10/20 02:58:31;;;;;;;11.55;5.10;;;;;;;13.41;68.53;99863.78;8485714;33;20925;-74
2021/10/20 03:03:34;;;;;;;4.25;3.85;;;;;;;13.43;68.30;99856.41;8487390;33;20386;-76
2021/10/20 03:08:38;;;;;;;5.53;4.05;;;;;;;13.57;67.58;99850.44;8488434;33;20562;-75
2021/10/20 03:13:41;;;;;;;5.45;3.92;;;;;;;13.53;67.63;99851.78;8501406;33;20412;-75
2021/10/20 03:18:45;;;;;;;5.00;3.78;;;;;;;13.44;67.76;99850.03;8505832;33;20422;-76
2021/10/20 03:23:49;;;;;;;4.93;4.07;;;;;;;13.36;68.32;99839.13;8503530;33;20152;-75
2021/10/20 03:28:52;;;;;;;6.65;4.38;;;;;;;13.33;68.46;99823.22;8491723;33;20438;-74
2021/10/20 03:33:55;;;;;;;6.35;4.38;;;;;;;13.43;67.84;99819.47;8490989;33;20436;-75
2021/10/20 03:38:59;;;;;;;6.53;4.03;;;;;;;13.20;68.33;99819.09;8490830;33;20481;-75
2021/10/20 03:44:03;;;;;;;5.80;4.38;;;;;;;13.34;67.89;99808.75;8478231;33;20490;-75
2021/10/20 03:49:06;;;;;;;7.22;5.07;;;;;;;13.40;67.82;99798.22;8489756;33;20193;-75
2021/10/20 03:54:10;;;;;;;12.25;5.07;;;;;;;13.39;67.50;99777.66;8489428;33;20194;-75
2021/10/20 03:59:13;;;;;;;5.85;4.07;;;;;;;13.40;67.29;99783.88;8487917;33;20412;-74
2021/10/20 04:04:16;;;;;;;6.32;4.40;;;;;;;13.37;67.57;99784.19;8489246;33;20424;-75
2021/10/20 04:09:21;;;;;;;5.78;4.32;;;;;;;13.36;67.66;99782.50;8489610;33;20451;-75
2021/10/20 04:14:24;;;;;;;6.35;4.32;;;;;;;13.33;67.62;99762.06;8489260;33;20409;-75
2021/10/20 04:19:27;;;;;;;6.30;3.97;;;;;;;13.29;67.68;99771.47;8488736;33;20467;-75
2021/10/20 04:24:32;;;;;;;6.00;3.97;;;;;;;13.32;67.70;99773.84;8489433;33;20408;-75
2021/10/20 04:29:35;;;;;;;5.82;3.95;;;;;;;13.32;67.88;99767.59;8458993;33;20149;-75
2021/10/20 04:34:38;;;;;;;6.85;4.00;;;;;;;13.33;67.38;99761.19;8477431;33;20239;-75
2021/10/20 04:39:42;;;;;;;5.65;3.65;;;;;;;13.38;67.19;99756.22;8479639;33;20203;-75
2021/10/20 04:44:45;;;;;;;7.63;4.60;;;;;;;13.34;67.43;99741.31;8482436;33;20425;-75
2021/10/20 04:49:49;;;;;;;5.47;4.15;;;;;;;13.37;67.43;99749.97;8485865;33;20502;-75
2021/10/20 04:54:54;;;;;;;6.20;3.90;;;;;;;13.31;67.55;99739.78;8489862;33;20456;-75
2021/10/20 04:59:57;;;;;;;5.95;3.97;;;;;;;13.28;67.69;99732.03;8483435;33;20464;-75
2021/10/20 05:05:00;;;;;;;5.22;4.45;;;;;;;13.38;67.18;99732.78;8479957;33;20515;-75
2021/10/20 05:10:06;;;;;;;7.25;4.40;;;;;;;13.36;67.26;99715.91;8457542;33;20403;-75
2021/10/20 05:15:10;;;;;;;4.93;4.30;;;;;;;13.31;67.54;99707.44;8489111;33;20230;-75
2021/10/20 05:20:16;;;;;;;6.57;4.10;;;;;;;13.29;67.77;99704.03;8504309;33;20177;-75
2021/10/20 05:25:20;;;;;;;4.97;4.07;;;;;;;13.40;67.42;99697.56;8503771;33;20191;-75
2021/10/20 05:30:23;;;;;;;7.32;4.28;;;;;;;13.42;67.48;99693.69;8503773;33;20405;-74
2021/10/20 05:35:27;;;;;;;4.00;3.57;;;;;;;13.43;67.17;99684.59;8480279;33;20521;-76
2021/10/20 05:40:34;;;;;;;5.97;4.32;;;;;;;13.47;67.41;99668.94;8506675;33;20212;-75
2021/10/20 05:45:37;;;;;;;6.50;3.88;;;;;;;13.46;67.39;99667.25;8507340;33;20145;-75
2021/10/20 05:50:40;;;;;;;4.82;4.03;;;;;;;13.46;67.28;99664.53;8505223;33;20590;-74
2021/10/20 05:55:45;;;;;;;5.43;4.43;;;;;;;13.46;67.56;99651.06;8490830;33;20457;-75
2021/10/20 06:00:48;;;;;;;6.05;4.40;;;;;;;13.38;67.60;99651.84;8499687;33;20547;-75
2021/10/20 06:05:51;;;;;;;5.82;4.40;;;;;;;13.48;67.40;99654.44;8494009;33;20681;-75
2021/10/20 06:10:55;;;;;;;7.10;4.75;;;;;;;13.54;67.56;99643.00;8487994;33;20195;-73
2021/10/20 06:15:58;;;;;;;7.45;5.28;;;;;;;13.45;67.76;99658.31;8488750;33;21063;-73
2021/10/20 06:21:02;;;;;;;5.22;3.58;;;;;;;13.44;68.05;99661.19;8452411;33;20238;-74
2021/10/20 06:26:06;;;;;;;5.75;3.72;;;;;;;13.39;68.18;99650.88;8485255;33;20549;-73
2021/10/20 06:31:09;;;;;;;6.50;5.13;;;;;;;13.39;68.13;99639.22;8486936;33;20190;-73
2021/10/20 06:36:21;;;;;;;7.75;5.18;;;;;;;13.43;68.21;99641.44;8486709;33;21088;-73
2021/10/20 06:41:26;;;;;;;8.27;4.93;;;;;;;13.47;68.20;99633.88;8486160;33;20446;-73
2021/10/20 06:46:29;;;;;;;7.00;4.95;;;;;;;13.59;67.68;99626.34;8461254;33;20176;-74
2021/10/20 06:51:32;;;;;;;5.85;4.53;;;;;;;13.68;67.13;99619.94;8486174;33;20452;-75
2021/10/20 06:56:37;;;;;;;7.72;4.88;;;;;;;13.70;67.29;99604.44;8485586;33;20933;-73
2021/10/20 07:01:40;;;;;;;8.57;4.95;;;;;;;13.75;67.03;99612.06;8485723;33;20172;-73
2021/10/20 07:06:43;;;;;;;8.05;5.80;;;;;;;13.94;66.86;99603.69;8497983;33;21436;-75
2021/10/20 07:11:47;;;;;;;8.55;5.75;;;;;;;13.99;66.42;99597.75;8500905;33;20149;-73
2021/10/20 07:16:50;;;;;;;11.32;5.78;;;;;;;13.99;66.94;99579.72;8490701;33;20466;-73
2021/10/20 07:21:54;;;;;;;9.48;6.20;;;;;;;13.99;66.62;99568.06;8495292;33;21721;-74
2021/10/20 07:26:58;;;;;;;7.60;4.90;;;;;;;13.94;66.59;99542.44;8488530;33;21601;-73
2021/10/20 07:32:01;;;;;;;6.97;4.93;;;;;;;14.05;65.69;99553.94;8493190;33;20196;-74
2021/10/20 07:37:05;;;;;;;8.35;5.55;;;;;;;14.04;66.32;99536.88;8487294;33;20480;-73
2021/10/20 07:42:09;;;;;;;6.93;5.72;;;;;;;14.24;65.37;99541.97;8481864;33;20590;-75
2021/10/20 07:47:12;;;;;;;9.00;5.05;;;;;;;14.30;64.93;99538.56;8484942;33;21046;-73
2021/10/20 07:52:17;;;;;;;8.93;4.88;;;;;;;14.31;65.35;99508.66;8487502;33;20819;-73
2021/10/20 07:57:21;;;;;;;20.40;10.93;;;;;;;14.29;65.40;99489.09;8483502;33;20202;-73
2021/10/20 08:02:25;;;;;;;17.42;10.38;;;;;;;14.44;64.94;99486.56;8485934;33;20518;-74
2021/10/20 08:07:28;;;;;;;12.45;7.95;;;;;;;14.51;64.99;99475.94;8490219;33;20251;-74
2021/10/20 08:12:32;;;;;;;13.15;8.45;;;;;;;14.35;65.13;99469.50;8491720;33;20176;-73
2021/10/20 08:17:35;;;;;;;12.40;5.95;;;;;;;14.62;64.16;99470.19;8490834;33;20423;-73
2021/10/20 08:22:39;;;;;;;10.43;5.80;;;;;;;15.06;62.97;99483.22;8490084;33;20415;-73
2021/10/20 08:27:44;;;;;;;7.80;5.18;;;;;;;15.29;62.34;99488.69;8489308;33;20486;-73
2021/10/20 08:32:49;;;;;;;7.30;5.20;;;;;;;15.82;60.84;99470.78;8490620;33;20463;-74
2021/10/20 08:37:56;;;;;;;7.00;5.05;;;;;;;16.02;60.04;99468.44;8467917;33;20466;-73
2021/10/20 08:43:01;;;;;;;10.73;5.50;;;;;;;16.18;59.66;99458.47;8491874;33;20512;-71
2021/10/20 08:48:06;;;;;;;6.72;4.85;;;;;;;16.53;59.74;99448.84;8487947;33;20546;-72
2021/10/20 08:53:09;;;;;;;12.40;5.47;;;;;;;17.54;57.04;99416.53;8487573;33;21460;-73
2021/10/20 08:58:14;;;;;;;8.25;4.80;;;;;;;17.74;56.57;99384.16;8485066;33;20145;-73
2021/10/20 09:03:17;;;;;;;7.20;5.43;;;;;;;16.92;58.47;99410.59;8485733;33;20204;-73
2021/10/20 09:08:20;;;;;;;17.92;8.82;;;;;;;16.16;60.89;99380.09;8540689;33;21843;-73
2021/10/20 09:13:25;;;;;;;16.38;7.20;;;;;;;15.86;61.28;99401.72;8540752;33;20189;-72
2021/10/20 09:18:35;;;;;;;10.13;5.10;;;;;;;15.71;61.83;99387.28;8547233;33;20485;-73
2021/10/20 09:23:38;;;;;;;9.52;5.90;;;;;;;16.22;61.48;99389.34;8546695;33;20440;-74
2021/10/20 09:28:43;;;;;;;9.73;5.53;;;;;;;16.96;59.17;99389.34;8546792;33;21175;-73
2021/10/20 09:34:07;;;;;;;9.02;6.22;;;;;;;17.38;58.76;99357.91;8547224;33;20171;-73
2021/10/20 09:39:10;;;;;;;9.40;4.70;;;;;;;17.25;58.76;99340.47;8547391;33;20185;-73
2021/10/20 09:44:15;;;;;;;8.18;5.57;;;;;;;17.39;58.93;99324.31;8547751;33;21194;-73
2021/10/20 09:49:20;;;;;;;6.28;4.80;;;;;;;17.22;60.16;99305.59;8547624;33;20174;-73
2021/10/20 09:54:26;;;;;;;5.97;4.93;;;;;;;17.41;59.83;99330.38;8548122;33;20557;-72
2021/10/20 09:59:34;;;;;;;8.57;5.80;;;;;;;16.87;61.80;99328.13;8546606;33;20183;-73
2021/10/20 10:04:38;;;;;;;7.70;4.65;;;;;;;16.97;60.88;99348.47;8543989;33;20978;-73
2021/10/20 10:09:41;;;;;;;8.35;4.65;;;;;;;16.44;61.97;99334.25;8516529;33;20546;-73
2021/10/20 10:14:50;;;;;;;6.57;4.25;;;;;;;16.40;62.29;99338.38;8536268;33;20417;-73
2021/10/20 10:20:11;;;;;;;6.45;4.20;;;;;;;16.35;62.48;99321.84;8525241;33;21407;-72
2021/10/20 10:25:14;;;;;;;6.70;5.50;;;;;;;16.46;62.15;99312.41;8489456;33;20176;-74
2021/10/20 10:30:19;;;;;;;12.10;6.00;;;;;;;16.27;62.68;99278.59;8537076;33;20270;-72
2021/10/20 10:35:27;;;;;;;6.10;3.38;;;;;;;16.15;62.33;99267.34;8541087;33;21068;-74
2021/10/20 10:40:32;;;;;;;6.68;4.80;;;;;;;16.65;61.46;99273.84;8540663;33;20187;-72
2021/10/20 10:45:37;;;;;;;10.98;5.22;;;;;;;16.66;61.15;99253.84;8536046;33;20244;-72
2021/10/20 10:50:49;;;;;;;8.57;5.57;;;;;;;16.80;61.06;99242.09;8536365;33;21035;-72
2021/10/20 10:56:03;;;;;;;7.35;5.15;;;;;;;16.46;61.49;99237.34;8537879;33;20194;-72
2021/10/20 11:01:07;;;;;;;7.68;5.43;;;;;;;16.54;61.83;99248.09;8537672;33;20187;-72
2021/10/20 11:06:19;;;;;;;7.55;4.78;;;;;;;16.21;64.00;99241.34;8539340;33;20237;-72
2021/10/20 11:11:22;;;;;;;6.40;5.10;;;;;;;15.88;64.31;99231.78;8536884;33;21119;-73
2021/10/20 11:16:27;;;;;;;5.65;4.30;;;;;;;15.80;64.30;99279.78;8533519;33;20472;-74
2021/10/20 11:21:33;;;;;;;9.95;4.93;;;;;;;16.07;64.01;99259.31;8514359;33;20562;-73
2021/10/20 11:26:37;;;;;;;8.60;4.50;;;;;;;15.79;64.31;99251.84;8535461;33;20145;-73
2021/10/20 11:31:52;;;;;;;7.55;4.97;;;;;;;15.96;64.22;99259.78;8536005;33;20408;-73
2021/10/20 11:37:02;;;;;;;8.18;4.30;;;;;;;15.47;64.79;99245.75;8546043;33;21223;-73
2021/10/20 11:42:09;;;;;;;5.40;3.50;;;;;;;15.81;64.00;99284.16;8546454;33;20243;-73
2021/10/20 11:47:17;;;;;;;7.82;4.18;;;;;;;15.97;63.42;99248.78;8538786;33;20754;-72
2021/10/20 11:52:23;;;;;;;8.77;4.22;;;;;;;15.92;63.85;99253.91;8539199;33;20430;-73
2021/10/20 11:57:26;;;;;;;8.23;4.85;;;;;;;15.95;64.30;99267.06;8539205;33;20530;-73
2021/10/20 12:02:36;;;;;;;6.30;4.30;;;;;;;16.02;64.19;99275.31;8542778;33;20413;-72
2021/10/20 12:07:42;;;;;;;4.97;3.85;;;;;;;15.90;64.50;99273.03;8547869;33;20187;-73
2021/10/20 12:12:47;;;;;;;7.90;5.05;;;;;;;16.03;64.57;99237.19;8525077;33;20422;-72
2021/10/20 12:17:53;;;;;;;6.82;4.93;;;;;;;16.07;64.48;99227.66;8548984;33;20424;-72
2021/10/20 12:22:57;;;;;;;7.65;5.30;;;;;;;15.98;64.66;99239.59;8549303;33;20435;-72
2021/10/20 12:28:00;;;;;;;8.02;5.60;;;;;;;16.38;63.86;99223.06;8548666;33;20144;-73
2021/10/20 12:33:09;;;;;;;7.40;5.72;;;;;;;16.93;62.42;99217.00;8543089;33;20463;-72
2021/10/20 12:38:16;;;;;;;6.10;3.88;;;;;;;16.11;64.34;99255.22;8542340;33;20908;-73
2021/10/20 12:43:19;;;;;;;6.50;4.72;;;;;;;16.08;64.86;99220.38;8538737;33;20453;-73
2021/10/20 12:48:24;;;;;;;6.97;5.18;;;;;;;16.11;64.97;99237.09;8462039;33;20407;-73
2021/10/20 12:53:29;;;;;;;5.95;4.47;;;;;;;15.80;65.49;99252.69;8512981;33;20188;-72
2021/10/20 12:58:32;;;;;;;7.72;5.53;;;;;;;16.00;65.55;99210.47;8514929;33;20592;-73
2021/10/20 13:03:38;;;;;;;5.07;4.18;;;;;;;15.48;67.09;99222.22;8520793;33;20160;-73
2021/10/20 13:08:42;;;;;;;8.10;4.85;;;;;;;15.37;67.56;99230.78;8545435;33;20651;-73
2021/10/20 13:13:45;;;;;;;9.52;6.05;;;;;;;15.73;66.97;99219.25;8540463;33;21455;-73
2021/10/20 13:18:49;;;;;;;7.38;5.18;;;;;;;15.56;67.29;99213.19;8541213;33;20233;-73
2021/10/20 13:23:53;;;;;;;6.93;4.72;;;;;;;15.73;66.81;99211.13;8544151;33;21120;-73
2021/10/20 13:28:56;;;;;;;7.25;4.53;;;;;;;15.67;66.55;99218.13;8546678;33;20225;-73
2021/10/20 13:34:00;;;;;;;6.65;4.82;;;;;;;16.00;66.07;99201.53;8545986;33;20460;-73
2021/10/20 13:39:04;;;;;;;5.35;4.25;;;;;;;15.78;66.61;99197.88;8523282;33;20194;-73
2021/10/20 13:44:07;;;;;;;7.57;5.55;;;;;;;16.04;66.18;99186.56;8525516;33;20275;-73
2021/10/20 13:49:11;;;;;;;7.30;4.70;;;;;;;15.98;66.41;99177.31;8516135;33;20194;-73
2021/10/20 13:54:14;;;;;;;7.85;4.80;;;;;;;15.75;66.69;99198.28;8509573;33;20431;-73
2021/10/20 13:59:18;;;;;;;6.57;5.15;;;;;;;15.98;67.10;99176.47;8510043;33;20394;-74
2021/10/20 14:04:24;;;;;;;6.28;4.60;;;;;;;15.83;67.25;99188.19;8514876;33;20245;-73
2021/10/20 14:09:28;;;;;;;4.72;4.22;;;;;;;15.58;67.69;99190.31;8523689;33;20517;-72
2021/10/20 14:14:31;;;;;;;8.25;5.47;;;;;;;15.62;68.05;99161.00;8478610;33;20152;-73
2021/10/20 14:19:48;;;;;;;7.15;5.22;;;;;;;15.43;68.98;99147.00;8514360;33;20187;-73
2021/10/20 14:24:51;;;;;;;6.35;3.83;;;;;;;15.32;69.07;99168.25;8513673;33;20154;-74
2021/10/20 14:29:54;;;;;;;5.93;4.60;;;;;;;15.67;68.23;99147.75;8509550;33;20152;-73
2021/10/20 14:34:58;;;;;;;8.35;5.50;;;;;;;15.70;69.05;99150.09;8526104;33;20542;-72
2021/10/20 14:40:02;;;;;;;7.05;5.13;;;;;;;15.61;68.58;99125.00;8534900;33;20419;-73
2021/10/20 14:45:06;;;;;;;7.55;5.07;;;;;;;15.67;69.10;99120.69;8536204;33;20191;-72
2021/10/20 14:50:12;;;;;;;6.32;4.43;;;;;;;15.51;69.12;99119.00;8513147;33;20239;-73
2021/10/20 14:55:15;;;;;;;6.03;4.97;;;;;;;15.47;69.75;99115.84;8524646;33;20505;-74
2021/10/20 15:00:19;;;;;;;6.07;4.18;;;;;;;15.26;69.78;99108.44;8501229;33;20465;-73
2021/10/20 15:05:24;;;;;;;6.90;4.78;;;;;;;15.54;69.40;99101.56;8475204;33;20329;-72
2021/10/20 15:10:28;;;;;;;7.00;5.03;;;;;;;15.46;69.43;99103.34;8476055;33;20978;-72
2021/10/20 15:15:32;;;;;;;6.25;4.45;;;;;;;15.42;69.72;99106.63;8486461;33;20216;-73
2021/10/20 15:20:52;;;;;;;8.63;5.47;;;;;;;15.20;70.81;99101.06;8494158;33;20408;-72
2021/10/20 15:25:55;;;;;;;7.80;4.68;;;;;;;15.13;70.84;99110.94;8470386;33;20177;-72
2021/10/20 15:30:59;;;;;;;8.52;4.95;;;;;;;15.10;70.96;99081.56;8490543;33;20411;-73
2021/10/20 15:36:04;;;;;;;9.57;5.20;;;;;;;15.14;70.85;99080.19;8489962;33;20199;-73
2021/10/20 15:41:07;;;;;;;6.05;3.97;;;;;;;15.05;70.71;99092.09;8491966;33;20300;-73
2021/10/20 15:46:11;;;;;;;6.15;5.22;;;;;;;14.98;71.05;99064.97;8505810;33;20512;-74
2021/10/20 15:51:18;;;;;;;8.30;5.80;;;;;;;15.08;70.74;99042.22;8494750;33;20203;-73
2021/10/20 15:56:21;;;;;;;9.18;6.30;;;;;;;15.08;70.71;99055.72;8495988;33;20610;-72
2021/10/20 16:01:24;;;;;;;5.85;4.50;;;;;;;15.12;70.68;99054.34;8492751;33;20613;-72
2021/10/20 16:06:29;;;;;;;7.78;4.50;;;;;;;15.00;70.68;99068.34;8491489;33;20976;-73
2021/10/20 16:11:32;;;;;;;7.15;4.28;;;;;;;14.93;71.50;99045.75;8489220;33;20690;-72
2021/10/20 16:16:35;;;;;;;5.40;4.20;;;;;;;14.88;71.56;99031.13;8488152;33;21127;-72
2021/10/20 16:21:40;;;;;;;6.45;4.72;;;;;;;14.90;71.73;99023.66;8484413;33;20414;-72
2021/10/20 16:26:44;;;;;;;7.82;4.75;;;;;;;14.76;72.04;99009.13;8482242;33;20917;-71
2021/10/20 16:31:47;;;;;;;5.78;3.58;;;;;;;14.74;71.81;99019.25;8482564;33;20137;-72
2021/10/20 16:36:51;;;;;;;6.38;4.00;;;;;;;14.89;71.80;99005.75;8482042;33;20137;-72
2021/10/20 16:41:54;;;;;;;6.25;4.63;;;;;;;14.73;71.99;99031.09;8484841;33;20517;-73
2021/10/20 16:46:57;;;;;;;5.20;4.07;;;;;;;14.82;71.87;99008.38;8485390;33;20973;-72
2021/10/20 16:52:03;;;;;;;4.97;3.67;;;;;;;14.68;72.16;99015.44;8484913;33;20423;-74
2021/10/20 16:57:07;;;;;;;6.55;4.53;;;;;;;14.62;72.37;98982.88;8480503;33;21590;-74
2021/10/20 17:02:10;;;;;;;5.05;3.45;;;;;;;14.50;72.35;98977.94;8476674;33;20149;-73
2021/10/20 17:07:14;;;;;;;4.93;4.07;;;;;;;14.71;71.85;98985.34;8479317;33;20287;-74
2021/10/20 17:12:17;;;;;;;6.78;4.20;;;;;;;14.56;72.69;98976.34;8482173;33;20534;-74
2021/10/20 17:17:20;;;;;;;4.82;3.40;;;;;;;14.59;71.79;98971.44;8493888;33;20892;-74
2021/10/20 17:22:26;;;;;;;4.43;3.60;;;;;;;14.49;71.62;98972.72;8501640;33;20480;-74
2021/10/20 17:27:30;;;;;;;6.45;4.43;;;;;;;14.67;71.65;98962.38;8499696;33;20137;-73
2021/10/20 17:32:33;;;;;;;6.85;4.30;;;;;;;14.74;71.26;98951.69;8489422;33;20177;-74
2021/10/20 17:37:40;;;;;;;6.28;4.18;;;;;;;14.48;71.93;98965.63;8486026;33;20198;-74
2021/10/20 17:42:43;;;;;;;5.65;3.85;;;;;;;14.68;71.40;98944.34;8484644;33;20136;-73
2021/10/20 17:47:47;;;;;;;4.75;3.45;;;;;;;14.73;71.18;98926.53;8458408;33;20429;-73
2021/10/20 17:52:52;;;;;;;5.35;3.70;;;;;;;14.66;71.20;98927.47;8492115;33;20447;-74
2021/10/20 17:57:55;;;;;;;5.10;3.58;;;;;;;14.59;71.40;98925.50;8507715;33;20195;-74
2021/10/20 18:02:58;;;;;;;5.70;4.32;;;;;;;14.76;70.61;98903.72;8503999;33;20766;-74
2021/10/20 18:08:03;;;;;;;4.82;3.35;;;;;;;14.59;71.35;98903.91;8498525;33;20400;-73
2021/10/20 18:13:06;;;;;;;4.93;3.63;;;;;;;14.72;70.63;98894.28;8502712;33;20424;-74
2021/10/20 18:18:09;;;;;;;3.28;2.22;;;;;;;14.56;70.82;98922.31;8515090;33;20432;-74
2021/10/20 18:23:14;;;;;;;3.50;2.85;;;;;;;14.79;70.56;98890.66;8526507;33;20501;-73
2021/10/20 18:28:17;;;;;;;3.85;2.40;;;;;;;14.74;70.24;98884.97;8545094;33;20183;-74
2021/10/20 18:33:20;;;;;;;4.35;2.63;;;;;;;14.53;70.33;98892.97;8518555;33;20273;-73
2021/10/20 18:38:25;;;;;;;3.47;2.80;;;;;;;14.71;69.92;98866.44;8543572;33;20469;-73
2021/10/20 18:43:28;;;;;;;3.47;2.42;;;;;;;14.62;70.26;98845.09;8495181;33;20706;-74
2021/10/20 18:48:51;;;;;;;5.80;3.28;;;;;;;14.86;69.32;98841.22;8478539;33;20188;-73
2021/10/20 18:53:56;;;;;;;4.35;3.22;;;;;;;14.64;70.18;98830.34;8491501;33;21147;-74
2021/10/20 18:59:01;;;;;;;4.25;2.70;;;;;;;14.62;70.08;98826.16;8498519;33;20199;-74
2021/10/20 19:04:05;;;;;;;4.57;2.55;;;;;;;14.58;69.53;98826.53;8494789;33;20191;-74
2021/10/20 19:09:10;;;;;;;3.17;2.53;;;;;;;14.67;69.48;98821.88;8501882;33;20400;-74
2021/10/20 19:14:20;;;;;;;2.78;2.30;;;;;;;14.61;69.70;98809.13;8495909;33;20403;-74
2021/10/20 19:19:25;;;;;;;2.85;2.55;;;;;;;14.72;68.89;98824.84;8472564;33;20184;-74
2021/10/20 19:24:30;;;;;;;2.25;2.05;;;;;;;14.45;69.81;98812.03;8502166;33;20179;-73
2021/10/20 19:29:33;;;;;;;3.88;2.78;;;;;;;14.57;69.56;98800.56;8480505;33;20226;-74
2021/10/20 19:34:38;;;;;;;4.38;2.60;;;;;;;14.58;69.76;98809.50;8500476;33;20645;-74
2021/10/20 19:39:43;;;;;;;7.78;2.08;;;;;;;14.52;69.19;98789.47;8504622;33;20215;-74
2021/10/20 19:44:46;;;;;;;3.53;3.00;;;;;;;14.52;69.40;98789.47;8527370;33;20235;-74
2021/10/20 19:49:49;;;;;;;4.40;2.60;;;;;;;14.80;68.29;98773.38;8537855;33;20187;-74
2021/10/20 19:54:54;;;;;;;4.40;2.53;;;;;;;14.60;68.39;98758.81;8509820;33;20446;-74
2021/10/20 19:59:57;;;;;;;3.53;2.70;;;;;;;14.75;68.49;98762.31;8509522;33;20190;-74
2021/10/20 20:05:00;;;;;;;5.13;3.33;;;;;;;14.97;68.05;98770.44;8512642;33;20177;-74
2021/10/20 20:10:05;;;;;;;4.07;2.92;;;;;;;14.79;68.31;98758.22;8526152;33;20652;-74
2021/10/20 20:15:10;;;;;;;3.17;2.58;;;;;;;14.77;68.01;98757.56;8511250;33;20419;-74
2021/10/20 20:20:14;;;;;;;4.28;3.00;;;;;;;14.88;67.97;98742.69;8511775;33;20402;-74
2021/10/20 20:25:18;;;;;;;3.67;2.85;;;;;;;14.69;68.50;98730.66;8509501;33;20184;-74
2021/10/20 20:30:21;;;;;;;6.10;2.75;;;;;;;14.63;68.98;98755.72;8479291;33;20438;-74
2021/10/20 20:35:24;;;;;;;5.97;3.00;;;;;;;14.67;68.52;98732.69;8506234;33;21070;-74
2021/10/20 20:40:29;;;;;;;3.63;2.85;;;;;;;14.90;68.03;98718.19;8516425;33;20529;-74
2021/10/20 20:45:33;;;;;;;3.30;2.70;;;;;;;14.77;68.53;98717.00;8529707;33;20179;-74
2021/10/20 20:50:36;;;;;;;4.40;3.25;;;;;;;14.68;68.76;98715.47;8492418;33;20304;-73
2021/10/20 20:55:40;;;;;;;6.70;3.20;;;;;;;14.72;68.61;98724.03;8463535;33;20255;-74
2021/10/20 21:00:44;;;;;;;4.65;2.95;;;;;;;14.79;68.48;98711.44;8503569;33;20878;-74
2021/10/20 21:05:47;;;;;;;4.20;2.85;;;;;;;14.86;68.24;98706.91;8507875;33;20433;-74
2021/10/20 21:10:52;;;;;;;4.97;3.15;;;;;;;14.80;68.28;98713.94;8481549;33;20435;-73
2021/10/20 21:15:55;;;;;;;6.15;3.25;;;;;;;14.72;70.69;98708.66;8497438;33;20896;-74
2021/10/20 21:20:59;;;;;;;4.15;3.40;;;;;;;13.87;75.65;98704.66;8491267;33;20419;-73
2021/10/20 21:26:05;;;;;;;5.00;3.55;;;;;;;13.59;77.55;98700.94;8490345;33;20322;-73
2021/10/20 21:31:09;;;;;;;9.25;4.53;;;;;;;13.24;82.37;98701.41;8491428;33;20199;-75
2021/10/20 21:36:15;;;;;;;4.68;3.28;;;;;;;11.98;88.58;98671.25;8492056;33;20622;-75
2021/10/20 21:41:21;;;;;;;8.85;4.63;;;;;;;11.81;92.69;98670.50;8496977;33;20211;-74
2021/10/20 21:46:26;;;;;;;11.07;4.85;;;;;;;11.91;98.55;98641.53;8502525;33;20635;-74
2021/10/20 21:51:31;;;;;;;10.23;5.57;;;;;;;11.78;99.53;98643.94;8505246;33;20215;-75
2021/10/20 21:56:36;;;;;;;10.82;5.35;;;;;;;11.99;97.33;98621.84;8508708;33;20184;-75
2021/10/20 22:01:40;;;;;;;8.95;5.18;;;;;;;12.11;94.91;98615.03;8507344;33;20156;-74
2021/10/20 22:06:43;;;;;;;9.75;6.07;;;;;;;12.26;94.09;98593.56;8508689;33;20298;-74
2021/10/20 22:11:48;;;;;;;9.00;5.65;;;;;;;12.26;93.72;98594.41;8508666;33;20511;-73
2021/10/20 22:16:51;;;;;;;7.57;5.18;;;;;;;12.28;93.79;98565.47;8506947;33;20186;-75
2021/10/20 22:21:55;;;;;;;8.73;5.38;;;;;;;12.32;93.66;98563.28;8501674;33;20153;-73
2021/10/20 22:26:59;;;;;;;9.90;5.68;;;;;;;12.44;93.61;98536.75;8504690;33;20185;-72
2021/10/20 22:32:06;;;;;;;10.82;4.85;;;;;;;12.55;93.83;98506.69;8505146;33;20169;-73
2021/10/20 22:37:11;;;;;;;9.52;5.80;;;;;;;12.50;93.15;98491.09;8501071;33;20229;-72
2021/10/20 22:42:16;;;;;;;9.52;5.28;;;;;;;12.56;93.34;98484.13;8477614;33;20453;-73
2021/10/20 22:47:20;;;;;;;9.57;5.60;;;;;;;12.59;92.74;98479.22;8477448;33;20419;-72
2021/10/20 22:52:23;;;;;;;7.82;5.47;;;;;;;12.62;91.93;98461.88;8502884;33;20633;-72
2021/10/20 22:57:28;;;;;;;7.05;4.88;;;;;;;12.61;92.21;98465.56;8495135;33;20708;-73
2021/10/20 23:02:31;;;;;;;9.20;6.15;;;;;;;12.46;91.70;98440.50;8487851;33;20347;-73
2021/10/20 23:07:34;;;;;;;9.13;5.93;;;;;;;12.45;91.63;98428.91;8486126;33;20408;-73
2021/10/20 23:12:39;;;;;;;7.68;4.93;;;;;;;12.37;91.84;98427.13;8462594;33;20623;-73
2021/10/20 23:17:43;;;;;;;9.50;5.95;;;;;;;12.47;91.66;98366.75;8459897;33;20426;-72
2021/10/20 23:22:46;;;;;;;9.73;5.47;;;;;;;12.49;91.29;98354.78;8484732;33;20236;-72
2021/10/20 23:27:51;;;;;;;10.15;5.35;;;;;;;12.39;90.90;98349.66;8487418;33;20445;-73
2021/10/20 23:32:54;;;;;;;8.73;5.32;;;;;;;12.35;91.09;98323.31;8489301;33;20145;-73
2021/10/20 23:37:57;;;;;;;5.38;4.43;;;;;;;12.27;90.56;98313.44;8498448;33;20180;-72
2021/10/20 23:43:01;;;;;;;10.10;5.00;;;;;;;12.41;90.75;98295.66;8503020;33;20471;-73
2021/10/20 23:48:05;;;;;;;7.47;4.97;;;;;;;12.45;91.00;98275.44;8503330;33;20439;-72